Time;durP1;ratioP1;P1;durP2;ratioP2;P2;SDS_P1;SDS_P2;PMS_P1;PMS_P2;Temp;Humidity;BMP_temperature;BMP_pressure;BME280_temperature;BME280_humidity;BME280_pressure;Samples;Min_cycle;Max_cycle;Signal;HPM_P1;HPM_P2
2021/08/18 00:00:06;;;;;;;3.85;2.22;;;;;;;17.62;77.46;97526.33;1698872;83;21012;-82
2021/08/18 00:02:34;;;;;;;2.50;2.00;;;;;;;17.62;77.42;97518.75;1724595;83;21540;-81
2021/08/18 00:05:00;;;;;;;2.98;1.95;;;;;;;17.61;77.39;97516.55;1699632;84;20988;-82
2021/08/18 00:07:29;;;;;;;2.70;1.82;;;;;;;17.62;77.57;97513.39;1714901;81;21058;-82
2021/08/18 00:09:56;;;;;;;3.83;2.08;;;;;;;17.64;77.49;97515.48;1757228;82;20980;-82
2021/08/18 00:12:22;;;;;;;3.77;2.42;;;;;;;17.62;77.29;97516.95;1735813;83;21003;-82
2021/08/18 00:14:50;;;;;;;2.87;1.87;;;;;;;17.58;77.13;97516.77;1756886;82;21051;-82
2021/08/18 00:17:18;;;;;;;2.35;1.98;;;;;;;17.59;76.96;97520.28;1735887;83;21436;-82
2021/08/18 00:19:45;;;;;;;4.53;2.22;;;;;;;17.51;77.22;97524.34;1754613;82;21394;-82
2021/08/18 00:22:12;;;;;;;3.05;1.90;;;;;;;17.47;77.74;97525.97;1736002;83;21034;-82
2021/08/18 00:24:38;;;;;;;3.72;1.90;;;;;;;17.39;78.25;97522.45;1757116;82;21028;-82
2021/08/18 00:27:05;;;;;;;2.62;2.40;;;;;;;17.30;78.39;97525.75;1735902;83;21352;-82
2021/08/18 00:29:31;;;;;;;4.17;2.72;;;;;;;17.24;78.59;97538.55;1755387;82;20988;-82
2021/08/18 00:31:58;;;;;;;4.17;2.40;;;;;;;17.18;79.40;97542.13;1726289;82;21005;-82
2021/08/18 00:34:24;;;;;;;3.50;2.37;;;;;;;17.14;78.80;97542.78;1724735;83;21533;-82
2021/08/18 00:36:50;;;;;;;9.10;3.52;;;;;;;17.10;78.39;97544.80;1724760;83;21008;-82
2021/08/18 00:39:17;;;;;;;4.12;2.25;;;;;;;17.00;80.78;97539.16;1724871;83;21031;-82
2021/08/18 00:41:46;;;;;;;3.00;2.17;;;;;;;16.95;80.39;97540.39;1724639;83;21020;-82
2021/08/18 00:44:13;;;;;;;4.37;2.60;;;;;;;16.86;81.19;97540.50;1724721;83;21488;-82
2021/08/18 00:46:50;;;;;;;3.08;2.40;;;;;;;16.82;80.10;97537.14;1743771;82;20977;-82
2021/08/18 00:49:19;;;;;;;4.40;2.77;;;;;;;16.81;80.28;97539.44;1731052;83;21003;-82
2021/08/18 00:51:48;;;;;;;4.37;2.50;;;;;;;16.78;81.80;97535.63;1756952;82;21068;-83
2021/08/18 00:54:16;;;;;;;3.15;2.22;;;;;;;16.75;81.25;97531.80;1735778;82;21117;-81
2021/08/18 00:56:45;;;;;;;3.25;2.50;;;;;;;16.73;82.21;97534.56;1733178;82;21437;-83
2021/08/18 00:59:13;;;;;;;3.25;2.20;;;;;;;16.72;81.66;97538.67;1724751;82;21473;-83
2021/08/18 01:01:43;;;;;;;3.92;2.25;;;;;;;16.73;80.96;97533.23;1726214;83;21656;-82
2021/08/18 01:04:14;;;;;;;4.40;2.70;;;;;;;16.75;81.66;97531.34;1726403;82;21035;-83
2021/08/18 01:06:47;;;;;;;3.02;2.20;;;;;;;16.80;80.86;97530.16;1726280;83;21020;-83
2021/08/18 01:09:17;;;;;;;3.03;2.40;;;;;;;16.85;80.72;97537.42;1725639;83;21024;-82
2021/08/18 01:11:48;;;;;;;4.78;2.47;;;;;;;16.91;80.45;97534.38;1726082;82;21079;-82
2021/08/18 01:14:17;;;;;;;4.03;2.45;;;;;;;16.94;81.00;97536.84;1740797;82;21047;-82
2021/08/18 01:16:47;;;;;;;3.72;2.40;;;;;;;16.99;80.37;97537.91;1738792;82;21011;-83
2021/08/18 01:19:17;;;;;;;3.55;2.30;;;;;;;17.01;80.35;97531.97;1757065;82;20973;-83
2021/08/18 01:21:47;;;;;;;4.03;2.47;;;;;;;17.05;80.33;97535.33;1738709;81;21542;-82
2021/08/18 01:24:18;;;;;;;3.37;2.33;;;;;;;17.11;80.36;97525.09;1757151;82;21020;-83
2021/08/18 01:26:46;;;;;;;4.95;2.65;;;;;;;17.15;80.66;97523.95;1739138;82;21006;-82
2021/08/18 01:29:13;;;;;;;4.37;2.40;;;;;;;17.17;80.50;97522.52;1727362;82;21012;-82
2021/08/18 01:31:42;;;;;;;4.15;2.33;;;;;;;17.20;80.56;97519.66;1724589;83;21032;-82
2021/08/18 01:34:09;;;;;;;6.42;2.62;;;;;;;17.19;80.52;97517.91;1724630;83;20981;-82
2021/08/18 01:36:38;;;;;;;4.72;2.80;;;;;;;17.17;80.60;97523.86;1724726;83;21091;-82
2021/08/18 01:39:08;;;;;;;3.05;2.27;;;;;;;17.14;80.62;97520.89;1724729;83;21079;-83
2021/08/18 01:41:36;;;;;;;3.90;2.40;;;;;;;17.12;80.76;97517.47;1731397;82;21035;-83
2021/08/18 01:44:03;;;;;;;3.75;2.37;;;;;;;17.15;81.05;97521.77;1738605;82;21046;-82
2021/08/18 01:46:31;;;;;;;3.65;2.10;;;;;;;17.19;80.95;97525.94;1757058;82;21485;-82
2021/08/18 01:48:59;;;;;;;5.05;2.30;;;;;;;17.19;81.23;97525.94;1739038;82;21046;-84
2021/08/18 01:51:26;;;;;;;2.98;2.33;;;;;;;17.24;80.66;97518.97;1756865;82;21059;-83
2021/08/18 01:53:53;;;;;;;3.92;2.42;;;;;;;17.27;80.48;97515.60;1738993;82;21480;-83
2021/08/18 01:56:19;;;;;;;4.03;2.45;;;;;;;17.31;80.15;97508.22;1739767;82;21016;-84
2021/08/18 01:58:49;;;;;;;3.25;2.30;;;;;;;17.25;80.37;97507.29;1724649;83;21079;-83
2021/08/18 02:01:18;;;;;;;6.08;2.98;;;;;;;17.15;81.30;97509.72;1720738;83;21103;-82
2021/08/18 02:03:45;;;;;;;4.70;2.12;;;;;;;17.12;81.29;97499.20;1709277;84;21043;-82
2021/08/18 02:06:11;;;;;;;3.37;2.42;;;;;;;17.08;81.17;97499.88;1709379;84;21119;-83
2021/08/18 02:08:38;;;;;;;4.35;2.87;;;;;;;17.05;81.33;97492.50;1724216;83;21040;-82
2021/08/18 02:11:05;;;;;;;5.15;2.75;;;;;;;17.07;80.61;97494.62;1749168;82;21382;-83
2021/08/18 02:13:34;;;;;;;4.30;3.00;;;;;;;17.05;80.76;97491.16;1750498;82;20957;-82
2021/08/18 02:16:02;;;;;;;5.47;2.70;;;;;;;17.06;81.24;97494.24;1739768;82;21471;-83
2021/08/18 02:18:29;;;;;;;6.58;2.87;;;;;;;17.07;80.83;97485.25;1739726;82;21066;-83
2021/08/18 02:20:56;;;;;;;2.77;2.37;;;;;;;17.07;80.57;97487.42;1739906;81;21057;-82
2021/08/18 02:23:23;;;;;;;4.47;2.65;;;;;;;17.05;80.76;97483.13;1733744;82;21410;-84
2021/08/18 02:25:51;;;;;;;4.67;2.50;;;;;;;17.07;80.32;97487.42;1722494;83;21442;-83
2021/08/18 02:28:18;;;;;;;4.47;2.60;;;;;;;17.08;80.34;97483.81;1694765;83;21399;-83
2021/08/18 02:30:44;;;;;;;5.08;3.00;;;;;;;17.05;81.93;97478.65;1714751;83;21021;-83
2021/08/18 02:33:11;;;;;;;4.20;2.85;;;;;;;17.02;81.30;97482.35;1738705;82;20978;-82
2021/08/18 02:35:38;;;;;;;4.58;2.80;;;;;;;17.01;82.09;97479.77;1739656;82;21435;-82
2021/08/18 02:38:06;;;;;;;3.65;2.72;;;;;;;16.98;81.84;97476.81;1716608;82;21042;-83
2021/08/18 02:40:33;;;;;;;3.60;2.83;;;;;;;16.94;81.81;97480.64;1725277;83;20988;-83
2021/08/18 02:43:00;;;;;;;4.62;2.67;;;;;;;16.92;81.13;97474.53;1725311;83;21012;-83
2021/08/18 02:45:30;;;;;;;4.55;3.10;;;;;;;16.94;81.18;97481.13;1725332;83;21027;-83
2021/08/18 02:47:56;;;;;;;4.92;2.92;;;;;;;16.91;82.40;97481.31;1725212;83;21008;-83
2021/08/18 02:50:27;;;;;;;6.58;3.12;;;;;;;16.90;82.09;97481.78;1729983;82;20981;-82
2021/08/18 02:52:53;;;;;;;5.00;2.85;;;;;;;16.87;83.69;97485.52;1739842;82;21027;-82
2021/08/18 02:55:19;;;;;;;4.85;3.02;;;;;;;16.85;83.41;97479.41;1703848;84;21040;-82
2021/08/18 02:57:46;;;;;;;5.28;3.00;;;;;;;16.84;83.67;97471.02;1692020;84;21129;-82
2021/08/18 03:00:14;;;;;;;5.12;2.98;;;;;;;16.86;83.50;97474.44;1691045;84;21443;-81
2021/08/18 03:02:41;;;;;;;4.78;3.45;;;;;;;16.88;83.25;97474.34;1689561;84;22119;-82
2021/08/18 03:05:09;;;;;;;3.75;3.37;;;;;;;16.91;83.53;97473.29;1694975;83;21056;-82
2021/08/18 03:07:35;;;;;;;5.40;3.67;;;;;;;16.97;82.96;97467.06;1691910;85;21028;-82
2021/08/18 03:10:03;;;;;;;5.50;3.77;;;;;;;17.00;83.51;97462.86;1691827;83;20969;-82
2021/08/18 03:12:30;;;;;;;6.37;4.15;;;;;;;17.04;83.22;97466.70;1691902;84;21012;-83
2021/08/18 03:14:58;;;;;;;9.08;4.60;;;;;;;17.05;83.49;97465.27;1691809;84;21489;-83
2021/08/18 03:17:25;;;;;;;5.83;3.67;;;;;;;17.06;83.61;97467.47;1692026;84;21036;-82
2021/08/18 03:19:51;;;;;;;7.22;4.28;;;;;;;17.05;83.54;97468.41;1715148;83;21074;-82
2021/08/18 03:22:18;;;;;;;8.23;4.67;;;;;;;17.06;83.68;97463.45;1721517;83;20999;-82
2021/08/18 03:24:44;;;;;;;8.45;5.00;;;;;;;17.09;83.60;97468.59;1721642;83;21098;-82
2021/08/18 03:27:11;;;;;;;7.03;4.70;;;;;;;17.13;83.02;97462.09;1721644;83;21038;-82
2021/08/18 03:29:37;;;;;;;8.20;5.40;;;;;;;17.14;83.18;97470.49;1708793;83;21081;-83
2021/08/18 03:32:07;;;;;;;9.15;5.58;;;;;;;17.10;83.02;97469.84;1692540;83;21320;-82
2021/08/18 03:34:33;;;;;;;10.38;5.58;;;;;;;17.14;82.55;97467.34;1695827;83;21004;-82
2021/08/18 03:37:00;;;;;;;9.78;5.50;;;;;;;17.14;82.43;97475.38;1691921;84;21044;-82
2021/08/18 03:39:26;;;;;;;9.28;5.97;;;;;;;17.14;82.16;97476.72;1692129;84;21055;-82
2021/08/18 03:41:52;;;;;;;13.03;6.40;;;;;;;17.10;83.06;97474.32;1691756;84;21048;-82
2021/08/18 03:44:19;;;;;;;11.53;6.90;;;;;;;17.07;82.67;97479.89;1691996;84;21037;-82
2021/08/18 03:46:45;;;;;;;9.23;6.37;;;;;;;17.04;84.01;97481.42;1699428;83;21053;-82
2021/08/18 03:49:12;;;;;;;13.65;8.00;;;;;;;17.02;82.77;97480.14;1721550;83;20972;-82
2021/08/18 03:51:38;;;;;;;12.73;7.42;;;;;;;17.01;82.75;97471.27;1721429;83;20975;-82
2021/08/18 03:54:05;;;;;;;13.22;7.42;;;;;;;17.02;83.51;97464.95;1712445;83;21482;-82
2021/08/18 03:56:31;;;;;;;10.95;7.35;;;;;;;17.01;82.95;97474.41;1687098;84;21133;-82
2021/08/18 03:58:59;;;;;;;9.75;6.58;;;;;;;16.97;83.26;97474.23;1719145;83;20996;-82
2021/08/18 04:01:26;;;;;;;11.60;7.17;;;;;;;16.95;83.58;97474.81;1717387;83;21060;-81
2021/08/18 04:03:52;;;;;;;9.30;6.37;;;;;;;16.93;83.35;97471.39;1723132;82;21020;-82
2021/08/18 04:06:19;;;;;;;11.18;6.67;;;;;;;16.91;83.83;97480.85;1700482;84;21096;-82
2021/08/18 04:08:45;;;;;;;8.70;6.72;;;;;;;16.89;84.82;97478.73;1725357;82;21071;-82
2021/08/18 04:11:12;;;;;;;8.05;6.30;;;;;;;16.88;83.71;97467.66;1686347;85;21049;-83
2021/08/18 04:13:38;;;;;;;10.82;7.60;;;;;;;16.89;83.90;97472.05;1701250;84;20972;-82
2021/08/18 04:16:05;;;;;;;9.75;7.15;;;;;;;16.85;85.82;97478.55;1704977;83;21014;-83
2021/08/18 04:18:31;;;;;;;7.45;6.22;;;;;;;16.84;85.54;97474.16;1704050;84;21013;-82
2021/08/18 04:20:58;;;;;;;10.28;5.70;;;;;;;16.85;85.58;97477.20;1673089;85;21004;-82
2021/08/18 04:23:24;;;;;;;9.35;5.05;;;;;;;16.86;84.56;97469.09;1673043;86;21044;-82
2021/08/18 04:25:51;;;;;;;8.13;5.45;;;;;;;16.90;84.70;97465.73;1669782;86;21525;-82
2021/08/18 04:28:17;;;;;;;9.55;5.78;;;;;;;16.92;85.22;97470.52;1697055;82;20972;-82
2021/08/18 04:30:43;;;;;;;7.62;5.20;;;;;;;16.96;84.81;97468.03;1725629;82;21044;-82
2021/08/18 04:33:10;;;;;;;12.33;5.15;;;;;;;17.01;84.80;97467.25;1700952;84;21413;-82
2021/08/18 04:35:37;;;;;;;6.50;5.05;;;;;;;17.05;84.93;97467.94;1725410;83;21053;-82
2021/08/18 04:38:03;;;;;;;7.62;5.15;;;;;;;17.06;84.82;97469.66;1699758;84;21430;-82
2021/08/18 04:40:30;;;;;;;8.28;4.60;;;;;;;17.05;84.86;97467.07;1724852;83;21026;-82
2021/08/18 04:42:57;;;;;;;10.70;5.47;;;;;;;17.08;84.44;97464.20;1697601;83;21004;-82
2021/08/18 04:45:23;;;;;;;13.50;5.92;;;;;;;17.08;84.99;97469.56;1723103;82;21004;-82
2021/08/18 04:47:50;;;;;;;10.72;6.53;;;;;;;17.08;84.53;97465.08;1700416;84;20996;-81
2021/08/18 04:50:17;;;;;;;9.43;5.03;;;;;;;17.17;84.23;97464.08;1724970;83;21082;-81
2021/08/18 04:52:45;;;;;;;6.62;4.28;;;;;;;17.20;84.06;97472.80;1710704;83;21019;-81
2021/08/18 04:55:15;;;;;;;5.47;3.70;;;;;;;17.26;83.91;97468.37;1756881;82;20984;-81
2021/08/18 04:57:41;;;;;;;6.05;4.05;;;;;;;17.30;83.72;97466.34;1756817;82;21034;-81
2021/08/18 05:00:10;;;;;;;7.70;4.65;;;;;;;17.34;83.65;97469.67;1738285;82;20995;-81
2021/08/18 05:02:37;;;;;;;7.62;4.10;;;;;;;17.35;83.40;97470.07;1704310;84;21042;-81
2021/08/18 05:05:05;;;;;;;5.47;4.08;;;;;;;17.30;83.58;97470.86;1707021;82;20992;-81
2021/08/18 05:07:31;;;;;;;5.83;3.98;;;;;;;17.23;83.77;97481.95;1738205;81;21042;-81
2021/08/18 05:09:58;;;;;;;7.50;4.50;;;;;;;17.18;83.35;97483.23;1705581;84;21398;-81
2021/08/18 05:12:25;;;;;;;5.60;4.50;;;;;;;17.19;83.29;97485.78;1739750;81;21023;-81
2021/08/18 05:14:51;;;;;;;8.25;4.12;;;;;;;17.21;83.48;97491.91;1726126;83;21083;-81
2021/08/18 05:17:18;;;;;;;7.08;4.33;;;;;;;17.23;83.20;97493.99;1726268;83;21052;-81
2021/08/18 05:19:44;;;;;;;6.35;4.30;;;;;;;17.22;83.86;97498.98;1751960;82;21409;-81
2021/08/18 05:22:10;;;;;;;5.20;4.17;;;;;;;17.18;83.56;97489.42;1709620;82;21082;-81
2021/08/18 05:24:37;;;;;;;5.85;4.40;;;;;;;17.16;83.82;97491.35;1706417;84;20996;-82
2021/08/18 05:27:04;;;;;;;7.25;4.87;;;;;;;17.19;83.24;97492.97;1706364;84;20996;-82
2021/08/18 05:29:31;;;;;;;5.20;4.40;;;;;;;17.19;83.05;97489.80;1706220;84;21059;-82
2021/08/18 05:31:57;;;;;;;5.95;4.60;;;;;;;17.23;83.24;97493.99;1703931;81;21417;-82
2021/08/18 05:34:25;;;;;;;5.58;4.10;;;;;;;17.28;82.95;97491.88;1737173;82;20984;-81
2021/08/18 05:36:51;;;;;;;9.60;7.25;;;;;;;17.26;83.25;97493.81;1738571;82;21059;-80
2021/08/18 05:39:17;;;;;;;6.08;4.45;;;;;;;17.27;83.15;97496.86;1739730;82;20982;-80
2021/08/18 05:41:44;;;;;;;5.80;4.22;;;;;;;17.35;82.96;97492.84;1689221;84;21005;-80
2021/08/18 05:44:10;;;;;;;6.70;4.00;;;;;;;17.39;82.83;97496.54;1720190;83;21060;-80
2021/08/18 05:46:37;;;;;;;6.10;4.35;;;;;;;17.46;83.07;97500.14;1705232;82;20980;-80
2021/08/18 05:49:03;;;;;;;6.30;4.30;;;;;;;17.49;82.73;97498.14;1705870;84;21028;-80
2021/08/18 05:51:30;;;;;;;8.08;4.20;;;;;;;17.54;82.97;97506.73;1710638;82;20991;-81
2021/08/18 05:53:56;;;;;;;6.42;4.25;;;;;;;17.58;82.78;97507.39;1746637;82;21046;-81
2021/08/18 05:56:23;;;;;;;4.60;4.00;;;;;;;17.59;82.62;97511.78;1669445;85;21081;-80
2021/08/18 05:58:49;;;;;;;6.35;4.12;;;;;;;17.61;82.21;97511.18;1689738;84;21034;-80
2021/08/18 06:01:16;;;;;;;5.67;3.92;;;;;;;17.62;82.38;97514.73;1681221;84;21051;-80
2021/08/18 06:03:44;;;;;;;5.97;3.77;;;;;;;17.61;82.07;97513.02;1673500;86;21044;-80
2021/08/18 06:06:12;;;;;;;6.00;4.17;;;;;;;17.62;82.05;97515.61;1673828;86;21027;-80
2021/08/18 06:08:39;;;;;;;6.17;4.12;;;;;;;17.63;82.13;97510.63;1673907;86;21029;-81
2021/08/18 06:11:05;;;;;;;6.42;4.47;;;;;;;17.66;81.96;97508.21;1673162;84;21018;-78
2021/08/18 06:13:31;;;;;;;6.03;3.85;;;;;;;17.71;81.87;97503.41;1672839;86;21037;-78
2021/08/18 06:15:58;;;;;;;4.25;3.85;;;;;;;17.76;81.85;97501.74;1673886;86;20979;-83
2021/08/18 06:18:24;;;;;;;5.60;3.58;;;;;;;17.80;81.53;97509.96;1673634;86;21446;-82
2021/08/18 06:20:51;;;;;;;5.67;3.30;;;;;;;17.82;81.37;97509.39;1673367;84;21046;-82
2021/08/18 06:23:22;;;;;;;6.22;2.90;;;;;;;17.84;81.36;97522.67;1677301;84;21048;-83
2021/08/18 06:25:47;;;;;;;5.25;3.27;;;;;;;17.74;80.07;97521.97;1673779;84;21062;-81
2021/08/18 06:28:13;;;;;;;4.87;2.90;;;;;;;17.76;80.71;97514.67;1646640;87;21023;-83
2021/08/18 06:30:40;;;;;;;4.25;2.80;;;;;;;17.80;80.42;97517.53;1660606;84;21417;-81
2021/08/18 06:33:06;;;;;;;3.87;2.62;;;;;;;17.86;79.81;97512.22;1672141;86;21031;-81
2021/08/18 06:35:33;;;;;;;4.00;3.00;;;;;;;17.95;80.07;97510.27;1672023;86;21040;-81
2021/08/18 06:37:59;;;;;;;5.25;3.10;;;;;;;18.02;79.09;97513.39;1673470;84;21043;-81
2021/08/18 06:40:26;;;;;;;7.58;3.05;;;;;;;18.06;78.70;97507.36;1673888;85;21480;-81
2021/08/18 06:42:52;;;;;;;3.35;3.02;;;;;;;18.13;78.91;97504.66;1676422;84;21016;-80
2021/08/18 06:45:19;;;;;;;7.53;3.60;;;;;;;18.23;79.01;97500.00;1704607;84;21077;-81
2021/08/18 06:47:45;;;;;;;3.30;2.70;;;;;;;18.30;79.01;97491.42;1704840;83;21054;-82
2021/08/18 06:50:13;;;;;;;6.83;3.12;;;;;;;18.38;78.23;97500.74;1704869;83;21008;-82
2021/08/18 06:52:39;;;;;;;3.40;2.50;;;;;;;18.39;78.18;97501.98;1704864;84;21028;-82
2021/08/18 06:55:08;;;;;;;5.20;2.70;;;;;;;18.39;77.56;97503.33;1699697;83;21007;-82
2021/08/18 06:57:35;;;;;;;4.60;2.95;;;;;;;18.43;77.75;97505.30;1697649;83;21360;-81
2021/08/18 07:00:01;;;;;;;4.67;2.60;;;;;;;18.47;77.65;97502.31;1709573;82;21035;-82
2021/08/18 07:02:28;;;;;;;4.37;3.60;;;;;;;18.49;77.28;97498.66;1701994;84;20982;-81
2021/08/18 07:04:54;;;;;;;4.60;2.90;;;;;;;18.55;77.30;97500.44;1693714;84;21025;-81
2021/08/18 07:07:20;;;;;;;4.65;3.80;;;;;;;18.56;77.04;97499.46;1693838;85;21553;-81
2021/08/18 07:09:47;;;;;;;4.33;3.72;;;;;;;18.50;75.87;97505.73;1701603;83;21056;-81
2021/08/18 07:12:14;;;;;;;4.92;3.30;;;;;;;18.47;76.28;97502.31;1709744;84;21013;-81
2021/08/18 07:14:40;;;;;;;5.47;3.58;;;;;;;18.52;76.71;97511.88;1709670;83;21526;-81
2021/08/18 07:17:06;;;;;;;5.47;3.40;;;;;;;18.49;75.78;97512.95;1709821;84;21141;-81
2021/08/18 07:19:33;;;;;;;6.30;3.05;;;;;;;18.47;75.72;97509.50;1711076;83;20957;-81
2021/08/18 07:21:59;;;;;;;6.47;3.83;;;;;;;18.45;75.54;97510.97;1709627;84;21017;-81
2021/08/18 07:24:25;;;;;;;6.17;3.40;;;;;;;18.43;75.46;97521.40;1709868;84;21009;-81
2021/08/18 07:26:52;;;;;;;7.90;3.75;;;;;;;18.39;75.15;97532.00;1709776;83;20985;-81
2021/08/18 07:29:20;;;;;;;8.25;3.45;;;;;;;18.37;75.21;97531.23;1711103;83;20985;-81
2021/08/18 07:31:46;;;;;;;7.12;3.70;;;;;;;18.35;75.37;97536.69;1707257;83;21028;-81
2021/08/18 07:34:13;;;;;;;4.33;3.37;;;;;;;18.39;75.39;97539.55;1704597;83;20990;-81
2021/08/18 07:36:39;;;;;;;4.90;3.72;;;;;;;18.43;75.45;97538.84;1701841;83;21047;-81
2021/08/18 07:39:06;;;;;;;5.47;3.55;;;;;;;18.55;75.36;97546.05;1722568;83;20991;-82
2021/08/18 07:41:32;;;;;;;6.30;3.67;;;;;;;18.64;75.47;97539.67;1708979;84;21000;-82
2021/08/18 07:43:58;;;;;;;4.97;3.92;;;;;;;18.82;75.23;97540.20;1718366;83;21036;-82
2021/08/18 07:46:25;;;;;;;4.25;3.10;;;;;;;18.91;74.71;97539.55;1714573;82;20960;-82
2021/08/18 07:48:51;;;;;;;7.37;3.05;;;;;;;18.98;74.60;97538.63;1721629;83;20992;-82
2021/08/18 07:51:18;;;;;;;4.58;2.98;;;;;;;19.05;73.91;97539.09;1708681;83;21032;-82
2021/08/18 07:53:45;;;;;;;3.58;2.70;;;;;;;19.15;74.28;97536.11;1683467;84;21410;-82
2021/08/18 07:56:11;;;;;;;3.40;2.55;;;;;;;19.31;73.73;97537.67;1689154;84;21096;-82
2021/08/18 07:58:38;;;;;;;5.05;2.30;;;;;;;19.36;73.08;97547.59;1669168;85;21037;-82
2021/08/18 08:01:05;;;;;;;2.17;1.80;;;;;;;19.34;71.05;97536.09;1693754;83;21000;-82
2021/08/18 08:03:32;;;;;;;2.77;1.87;;;;;;;19.37;70.03;97538.56;1699504;84;21010;-81
2021/08/18 08:05:59;;;;;;;2.85;2.08;;;;;;;19.43;70.99;97543.98;1698398;84;21011;-81
2021/08/18 08:08:26;;;;;;;5.72;2.22;;;;;;;19.47;69.70;97540.94;1703550;83;21005;-81
2021/08/18 08:10:52;;;;;;;2.27;1.70;;;;;;;19.44;67.46;97553.28;1695655;83;21102;-82
2021/08/18 08:13:19;;;;;;;2.45;1.90;;;;;;;19.43;68.28;97540.79;1682255;84;20983;-81
2021/08/18 08:15:45;;;;;;;2.17;1.98;;;;;;;19.43;67.02;97536.76;1688044;84;20991;-82
2021/08/18 08:18:12;;;;;;;2.92;1.90;;;;;;;19.38;65.57;97538.45;1683320;84;20992;-82
2021/08/18 08:20:42;;;;;;;2.45;1.85;;;;;;;19.31;64.11;97534.48;1681431;84;21456;-83
2021/08/18 08:23:09;;;;;;;3.92;1.90;;;;;;;19.36;65.91;97537.69;1670666;84;20970;-83
2021/08/18 08:25:36;;;;;;;2.30;2.10;;;;;;;19.30;64.83;97530.09;1687844;84;22167;-78
2021/08/18 08:28:02;;;;;;;4.50;2.40;;;;;;;19.34;66.56;97533.40;1696754;83;21034;-78
2021/08/18 08:30:29;;;;;;;2.72;2.02;;;;;;;19.38;66.45;97534.42;1676063;83;21009;-81
2021/08/18 08:32:55;;;;;;;2.47;1.82;;;;;;;19.36;66.09;97539.54;1684093;84;21390;-82
2021/08/18 08:35:22;;;;;;;3.52;2.00;;;;;;;19.35;66.78;97540.02;1691447;84;21052;-82
2021/08/18 08:37:51;;;;;;;2.50;1.82;;;;;;;19.38;67.47;97541.61;1671386;84;21058;-81
2021/08/18 08:40:22;;;;;;;2.55;1.80;;;;;;;19.41;67.70;97546.77;1706522;83;21035;-81
2021/08/18 08:42:49;;;;;;;3.10;2.12;;;;;;;19.41;67.21;97544.56;1678560;85;21065;-82
2021/08/18 08:45:15;;;;;;;3.55;2.00;;;;;;;19.36;67.50;97544.91;1678635;85;21009;-81
2021/08/18 08:47:42;;;;;;;2.92;2.00;;;;;;;19.34;68.17;97544.15;1680416;85;20985;-83
2021/08/18 08:50:12;;;;;;;3.52;2.10;;;;;;;19.32;67.98;97546.97;1709110;84;20996;-80
2021/08/18 08:52:39;;;;;;;3.27;1.80;;;;;;;19.29;67.79;97547.19;1700745;84;20992;-82
2021/08/18 08:55:07;;;;;;;2.00;1.80;;;;;;;19.30;68.16;97549.39;1709316;84;20993;-82
2021/08/18 08:57:50;;;;;;;5.40;1.77;;;;;;;19.33;68.06;97547.81;1686731;84;21009;-82
2021/08/18 09:00:17;;;;;;;3.27;2.00;;;;;;;19.35;66.78;97543.20;1702604;83;21007;-81
2021/08/18 09:02:45;;;;;;;4.87;2.22;;;;;;;19.33;65.81;97545.13;1714098;83;21047;-82
2021/08/18 09:05:27;;;;;;;4.62;2.08;;;;;;;19.33;66.54;97536.59;1716478;83;21078;-82
2021/08/18 09:07:58;;;;;;;6.33;2.22;;;;;;;19.32;65.18;97536.70;1701353;83;21424;-81
2021/08/18 09:10:27;;;;;;;2.58;1.80;;;;;;;19.27;65.75;97537.05;1708003;83;21023;-80
2021/08/18 09:13:14;;;;;;;2.52;2.02;;;;;;;19.28;66.20;97530.70;1706688;83;21004;-78
2021/08/18 09:15:48;;;;;;;4.08;2.45;;;;;;;19.31;66.21;97521.55;1705282;84;20957;-80
2021/08/18 09:18:14;;;;;;;3.90;2.08;;;;;;;19.32;66.03;97521.45;1708892;83;21053;-80
2021/08/18 09:20:42;;;;;;;3.65;1.75;;;;;;;19.29;65.29;97526.16;1713005;83;21062;-81
2021/08/18 09:23:12;;;;;;;6.08;1.95;;;;;;;19.30;66.26;97530.09;1711980;83;21008;-82
2021/08/18 09:25:39;;;;;;;2.87;2.20;;;;;;;19.35;66.27;97522.55;1696012;84;21011;-81
2021/08/18 09:28:11;;;;;;;2.37;2.00;;;;;;;19.47;66.52;97522.13;1697738;83;21000;-81
2021/08/18 09:30:41;;;;;;;4.85;2.22;;;;;;;19.57;66.41;97520.11;1702317;83;21449;-80
2021/08/18 09:33:19;;;;;;;2.02;1.70;;;;;;;19.65;66.44;97521.24;1702288;83;21359;-80
2021/08/18 09:35:56;;;;;;;2.60;1.70;;;;;;;19.66;64.90;97522.11;1702063;83;21052;-79
2021/08/18 09:38:27;;;;;;;3.33;1.62;;;;;;;19.62;65.41;97521.49;1701039;83;20992;-80
2021/08/18 09:40:54;;;;;;;4.28;2.08;;;;;;;19.59;65.11;97524.39;1704668;84;21504;-80
2021/08/18 09:43:25;;;;;;;2.50;1.85;;;;;;;19.53;64.39;97516.80;1724736;83;21418;-80
2021/08/18 09:46:01;;;;;;;2.40;1.80;;;;;;;19.50;64.62;97519.23;1720224;83;21418;-80
2021/08/18 09:48:38;;;;;;;3.33;1.80;;;;;;;19.41;64.38;97515.87;1725033;82;20999;-79
2021/08/18 09:51:08;;;;;;;3.37;1.80;;;;;;;19.42;65.46;97515.41;1713454;83;21434;-80
2021/08/18 09:53:40;;;;;;;2.95;2.15;;;;;;;19.41;65.21;97524.41;1707209;84;21071;-80
2021/08/18 09:56:14;;;;;;;3.67;1.92;;;;;;;19.42;65.51;97514.06;1703553;83;21082;-80
2021/08/18 09:58:47;;;;;;;3.10;2.02;;;;;;;19.43;65.58;97523.33;1697531;83;21063;-80
2021/08/18 10:01:16;;;;;;;3.70;2.50;;;;;;;19.46;65.99;97526.27;1677075;84;21000;-80
2021/08/18 10:03:47;;;;;;;2.58;2.15;;;;;;;19.45;66.03;97533.49;1685278;84;21118;-79
2021/08/18 10:06:14;;;;;;;2.92;2.00;;;;;;;19.34;65.79;97531.59;1693544;84;21003;-82
2021/08/18 10:08:44;;;;;;;3.67;1.90;;;;;;;19.30;66.04;97533.28;1677075;84;21044;-82
2021/08/18 10:11:14;;;;;;;2.85;2.17;;;;;;;19.22;66.47;97532.50;1679533;84;21055;-81
2021/08/18 10:13:41;;;;;;;3.45;2.12;;;;;;;19.13;66.94;97537.55;1676998;84;21053;-81
2021/08/18 10:16:09;;;;;;;3.10;2.10;;;;;;;19.11;67.97;97535.45;1676738;85;20961;-82
2021/08/18 10:18:40;;;;;;;2.77;2.02;;;;;;;19.01;68.07;97542.42;1674802;84;21024;-81
2021/08/18 10:21:13;;;;;;;2.27;1.90;;;;;;;18.96;67.95;97540.55;1697954;83;21032;-81
2021/08/18 10:23:54;;;;;;;2.85;1.95;;;;;;;18.91;68.25;97548.95;1693074;83;21079;-82
2021/08/18 10:26:39;;;;;;;3.98;2.00;;;;;;;18.88;67.62;97552.34;1699419;82;21397;-81
2021/08/18 10:29:13;;;;;;;3.33;2.15;;;;;;;18.86;67.93;97554.63;1678267;84;21044;-82
2021/08/18 10:31:46;;;;;;;2.95;1.87;;;;;;;18.86;67.60;97547.08;1699645;84;20996;-81
2021/08/18 10:34:32;;;;;;;5.17;2.30;;;;;;;18.90;67.76;97551.73;1705242;83;21006;-82
2021/08/18 10:37:05;;;;;;;3.17;1.85;;;;;;;18.93;67.63;97553.71;1707991;84;20992;-81
2021/08/18 10:39:43;;;;;;;5.58;2.08;;;;;;;18.83;67.50;97561.57;1723029;83;21022;-81
2021/08/18 10:42:21;;;;;;;3.52;1.85;;;;;;;18.92;67.70;97561.87;1707938;84;21067;-82
2021/08/18 10:44:53;;;;;;;2.40;1.98;;;;;;;18.99;67.73;97559.14;1699070;83;21010;-81
2021/08/18 10:47:37;;;;;;;4.42;2.22;;;;;;;19.12;67.84;97558.67;1691694;84;21462;-81
2021/08/18 10:50:24;;;;;;;3.60;2.02;;;;;;;19.25;67.28;97556.43;1693000;85;20964;-81
2021/08/18 10:52:55;;;;;;;3.22;2.00;;;;;;;19.36;67.13;97556.50;1681523;84;21013;-81
2021/08/18 10:55:30;;;;;;;3.08;1.98;;;;;;;19.49;66.46;97562.33;1668230;85;21005;-81
2021/08/18 10:58:03;;;;;;;2.95;1.90;;;;;;;19.56;66.19;97553.34;1668301;84;21075;-81
2021/08/18 11:00:43;;;;;;;4.00;2.00;;;;;;;19.58;65.70;97561.66;1710495;82;21076;-82
2021/08/18 11:03:17;;;;;;;3.15;1.75;;;;;;;19.61;65.98;97554.73;1706743;82;21036;-81
2021/08/18 11:05:49;;;;;;;4.10;3.33;;;;;;;19.69;64.96;97552.81;1704442;84;21566;-81
2021/08/18 11:08:28;;;;;;;3.52;2.40;;;;;;;19.77;63.98;97549.55;1706286;84;21483;-80
2021/08/18 11:11:00;;;;;;;2.95;2.10;;;;;;;19.85;65.16;97556.53;1718319;82;21454;-82
2021/08/18 11:13:53;;;;;;;2.47;2.08;;;;;;;19.99;64.54;97550.64;1720316;82;21021;-84
2021/08/18 11:16:29;;;;;;;3.12;1.95;;;;;;;19.98;62.28;97549.81;1688927;84;21472;-80
2021/08/18 11:19:00;;;;;;;3.35;1.90;;;;;;;20.04;62.86;97549.81;1707197;84;21109;-79
2021/08/18 11:21:30;;;;;;;3.90;2.00;;;;;;;20.13;63.12;97553.14;1707696;82;20987;-77
2021/08/18 11:24:00;;;;;;;2.62;2.05;;;;;;;20.03;59.29;97555.69;1707920;84;21012;-78
2021/08/18 11:26:32;;;;;;;2.77;1.70;;;;;;;20.05;59.01;97546.14;1707630;84;21078;-78
2021/08/18 11:29:11;;;;;;;2.77;1.95;;;;;;;20.10;56.77;97546.64;1705218;84;21064;-79
2021/08/18 11:31:53;;;;;;;2.20;2.00;;;;;;;20.38;59.76;97540.50;1731812;82;21007;-79
2021/08/18 11:34:30;;;;;;;2.50;2.22;;;;;;;20.56;58.41;97543.59;1734557;81;21341;-78
2021/08/18 11:37:08;;;;;;;2.35;2.10;;;;;;;20.74;58.98;97544.48;1708134;83;21190;-80
2021/08/18 11:39:38;;;;;;;2.60;1.87;;;;;;;20.79;56.25;97544.97;1739132;82;21030;-79